Data for 11/04/2016

Time Sea-Level Adjusted Pressure Absolute Pressure Temperature Relative Humidity Dew Point   
(mb) (inHg) (mb) (inHg) (C) (F) (%) (C) (F)
00:05 1028 30.36 857 25.31 5.8 42.5 50 -3.9 25.1
00:10 1028 30.36 857 25.31 5.8 42.5 49 -4 24.7
00:15 1028 30.36 857 25.31 5.7 42.3 50 -3.8 25.1
00:20 1028 30.36 857 25.31 5.5 41.8 52 -3.5 25.6
00:25 1028 30.36 857 25.31 4.9 40.8 54 -3.6 25.5
00:30 1028 30.36 857 25.31 4.7 40.5 54 -3.7 25.3
00:35 1028 30.36 857 25.31 4.7 40.4 54 -3.8 25.2
00:40 1028 30.36 857 25.31 4.8 40.6 54 -3.7 25.3
00:45 1028 30.36 857 25.31 5.2 41.3 50 -4.5 23.9
00:50 1028 30.36 857 25.31 6 42.7 48 -4.1 24.6
00:55 1028 30.36 857 25.31 5.6 42.1 52 -3.5 25.7
01:00 1028 30.36 857 25.31 4.6 40.2 53 -4.1 24.6
01:05 1028 30.36 857 25.31 4.9 40.8 51 -4.4 24.1
01:10 1028 30.36 857 25.31 4.7 40.5 53 -4.1 24.6
01:15 1028 30.36 857 25.31 4.6 40.3 52 -4.3 24.3
01:20 1028 30.36 857 25.31 4.6 40.3 52 -4.3 24.2
01:25 1028 30.36 857 25.31 4.5 40.1 53 -4.2 24.5
01:30 1028 30.36 857 25.31 4.2 39.5 53 -4.4 24
01:35 1028 30.36 857 25.31 4.3 39.7 53 -4.4 24.1
01:40 1028 30.36 857 25.31 4.3 39.7 53 -4.5 24
01:45 1028 30.36 857 25.31 4.1 39.3 53 -4.7 23.5
01:50 1028 30.36 857 25.31 4 39.2 55 -4.3 24.2
01:55 1028 30.36 857 25.31 3.5 38.3 55 -4.6 23.8
02:00 1028 30.36 857 25.31 3.5 38.3 55 -4.7 23.6
02:05 1028 30.36 857 25.31 3.6 38.4 56 -4.5 23.9
02:10 1028 30.36 857 25.31 3.3 38 56 -4.6 23.7
02:15 1028 30.36 857 25.31 3.2 37.8 57 -4.5 23.8
02:20 1028 30.36 857 25.31 3 37.5 57 -4.6 23.7
02:25 1028 30.36 857 25.31 2.7 36.8 59 -4.5 23.8
02:30 1028 30.36 857 25.31 2.2 35.9 61 -4.6 23.7
02:35 1028 30.36 857 25.31 2 35.6 59 -5.1 22.8
02:40 1028 30.36 857 25.31 2.8 37.1 56 -5 23
02:45 1028 30.36 857 25.31 3 37.4 57 -4.7 23.5
02:50 1028 30.36 857 25.31 3.1 37.6 55 -5.1 22.8
02:55 1028 30.36 857 25.31 3.7 38.7 53 -4.9 23.1
03:00 1028 30.36 857 25.31 3.8 38.9 53 -5 23
03:05 1028 30.36 857 25.31 3.9 39.1 52 -5.1 22.9
03:10 1028 30.36 857 25.31 3.8 38.9 52 -5.1 22.9
03:15 1028 30.36 857 25.31 3.6 38.5 53 -5 23
03:20 1028 30.36 857 25.31 3.6 38.5 53 -5 23
03:25 1028 30.36 857 25.31 3.5 38.4 54 -5 23
03:30 1028 30.36 857 25.31 3.3 38 55 -4.9 23.2
03:35 1028 30.36 857 25.31 3 37.5 55 -5.1 22.8
03:40 1028 30.36 857 25.31 2.9 37.3 56 -5.1 22.9
03:45 1028 30.36 857 25.31 2.8 37.1 56 -5.1 22.7
03:50 1028 30.36 857 25.31 2.8 37 56 -5.2 22.7
03:55 1028 30.36 857 25.31 2.7 36.9 56 -5.3 22.5
04:00 1028 30.36 857 25.31 3.1 37.6 54 -5.4 22.3
04:05 1028 30.36 857 25.31 3.4 38.1 53 -5.4 22.2
04:10 1028 30.36 857 25.31 3.5 38.3 51 -5.6 21.9
04:15 1028 30.36 857 25.31 3.7 38.6 52 -5.2 22.7
04:20 1028 30.36 857 25.31 3.6 38.4 52 -5.5 22.1
04:25 1028 30.36 857 25.31 3.6 38.5 51 -5.6 21.8
04:30 1028 30.36 857 25.31 4.2 39.5 50 -5.4 22.3
04:35 1028 30.36 857 25.31 3.9 39 48 -6 21.2
04:40 1028 30.36 857 25.31 3.7 38.6 50 -5.8 21.6
04:45 1028 30.36 857 25.31 3.5 38.2 48 -6.5 20.3
04:50 1028 30.36 857 25.31 3.7 38.6 50 -5.9 21.4
04:55 1028 30.36 857 25.31 3 37.5 50 -6.3 20.6
05:00 1028 30.36 857 25.31 2.9 37.3 49 -6.8 19.8
05:05 1028 30.36 857 25.31 3 37.3 51 -6.1 20.9
05:10 1028 30.36 857 25.31 2.4 36.4 54 -5.9 21.4
05:15 1028 30.36 857 25.31 3 37.4 49 -6.6 20.1
05:20 1028 30.36 857 25.31 3.5 38.3 48 -6.5 20.4
05:25 1028 30.36 857 25.31 3.7 38.6 48 -6.2 20.8
05:30 1028 30.36 857 25.31 3.9 38.9 47 -6.4 20.5
05:35 1028 30.36 857 25.31 3.7 38.7 48 -6.4 20.6
05:40 1028 30.36 857 25.31 3 37.5 51 -6 21.2
05:45 1028 30.36 857 25.31 3.2 37.8 50 -6.2 20.8
05:50 1027 30.33 857 25.31 3.4 38.1 51 -5.9 21.4
05:55 1027 30.33 857 25.31 2.8 37.1 53 -5.9 21.4
06:00 1027 30.33 857 25.31 2.9 37.2 53 -5.8 21.6
06:05 1027 30.33 857 25.31 2.7 36.8 54 -5.7 21.7
06:10 1027 30.33 857 25.31 2.3 36.2 55 -5.8 21.5
06:15 1027 30.33 857 25.31 2.1 35.8 56 -5.8 21.5
06:20 1027 30.33 857 25.31 2.2 35.9 54 -6.1 20.9
06:25 1027 30.33 857 25.31 2.6 36.7 53 -5.9 21.3
06:30 1027 30.33 857 25.31 2.8 37 52 -6.2 20.8
06:35 1027 30.33 857 25.31 2.9 37.2 52 -6.1 21
06:40 1027 30.33 856 25.28 3 37.3 52 -6 21.1
06:45 1027 30.33 856 25.28 3 37.4 51 -6.1 21.1
06:50 1027 30.33 856 25.28 3 37.4 51 -6.2 20.8
06:55 1027 30.33 856 25.28 3 37.4 51 -6.1 21.1
07:00 1027 30.33 856 25.28 2.6 36.6 54 -5.9 21.4
07:05 1027 30.33 856 25.28 2.9 37.2 50 -6.6 20.1
07:10 1027 30.33 856 25.28 2.5 36.6 51 -6.5 20.3
07:15 1027 30.33 856 25.28 2.2 35.9 51 -7 19.4
07:20 1027 30.33 856 25.28 2.5 36.5 50 -7 19.4
07:25 1027 30.33 856 25.28 2.9 37.2 50 -6.5 20.4
07:30 1027 30.33 856 25.28 3.4 38.1 49 -6.4 20.5
07:35 1027 30.33 856 25.28 3.3 37.9 48 -6.6 20.1
07:40 1027 30.33 857 25.31 3.5 38.2 48 -6.5 20.2
07:45 1027 30.33 857 25.31 2.8 37.1 51 -6.4 20.4
07:50 1027 30.33 857 25.31 2.7 36.9 51 -6.5 20.3
07:55 1027 30.33 857 25.31 2.9 37.2 49 -6.6 20
08:00 1027 30.33 857 25.31 3.7 38.7 45 -7.1 19.3
08:05 1027 30.33 857 25.31 4.1 39.5 45 -6.8 19.8
08:10 1027 30.33 857 25.31 4.1 39.4 45 -6.9 19.6
08:15 1027 30.33 857 25.31 4.8 40.7 42 -6.9 19.6
08:20 1027 30.33 857 25.31 4.9 40.7 44 -6.5 20.3
08:25 1028 30.36 857 25.31 4.5 40.1 45 -6.3 20.6
08:30 1028 30.36 857 25.31 4.6 40.4 44 -6.7 20
08:35 1028 30.36 857 25.31 5 41 43 -6.6 20.2
08:40 1028 30.36 857 25.31 5.9 42.6 41 -6.3 20.6
08:45 1028 30.36 857 25.31 6.6 43.8 40 -6.1 21.1
08:50 1028 30.36 857 25.31 6.9 44.4 41 -5.5 22.1
08:55 1028 30.36 857 25.31 7.1 44.7 38 -6.4 20.5
09:00 1028 30.36 857 25.31 6.2 43.2 39 -6.7 20
09:05 1028 30.36 857 25.31 5.7 42.2 43 -6 21.2
09:10 1028 30.36 857 25.31 5.6 42 44 -5.8 21.5
09:15 1028 30.36 857 25.31 5.5 41.8 43 -6.2 20.9
09:20 1028 30.36 857 25.31 5.7 42.3 41 -6.5 20.3
09:25 1028 30.36 857 25.31 6.5 43.7 39 -6.7 20
09:30 1028 30.36 857 25.31 6.7 44.1 40 -6 21.3
09:35 1028 30.36 857 25.31 6.9 44.3 38 -6.4 20.5
09:40 1028 30.36 857 25.31 7.1 44.7 40 -5.7 21.7
09:45 1028 30.36 857 25.31 7.7 45.8 39 -5.4 22.3
09:50 1028 30.36 857 25.31 7.8 46.1 39 -5.3 22.4
09:55 1027 30.33 857 25.31 8.2 46.7 37 -5.8 21.5
10:00 1027 30.33 857 25.31 8.8 47.8 34 -6 21.2
10:05 1027 30.33 857 25.31 8.8 47.9 36 -5.5 22.1
10:10 1027 30.33 857 25.31 9.3 48.7 34 -5.9 21.4
10:15 1027 30.33 857 25.31 10 50 32 -5.9 21.3
10:20 1027 30.33 857 25.31 10 50 32 -5.7 21.7
10:25 1027 30.33 857 25.31 9.8 49.6 34 -5.2 22.7
10:30 1027 30.33 857 25.31 9.6 49.3 37 -4.3 24.2
10:35 1027 30.33 857 25.31 10 49.9 35 -4.9 23.3
10:40 1028 30.36 857 25.31 10.5 50.9 35 -4.1 24.6
10:45 1027 30.33 857 25.31 10 50 36 -4.2 24.4
10:50 1028 30.36 857 25.31 10.5 50.9 33 -4.9 23.3
10:55 1028 30.36 857 25.31 10.5 50.8 34 -4.7 23.5
11:00 1027 30.33 857 25.31 11.2 52.1 32 -4.8 23.3
11:05 1027 30.33 857 25.31 10.7 51.2 33 -4.8 23.4
11:10 1027 30.33 857 25.31 10 50.1 37 -4.1 24.6
11:15 1027 30.33 857 25.31 9.7 49.4 37 -4.4 24.1
11:20 1027 30.33 857 25.31 10.8 51.4 34 -4.5 23.8
11:25 1027 30.33 857 25.31 11.6 52.9 32 -4.3 24.3
11:30 1027 30.33 856 25.28 11.6 52.9 33 -3.9 24.9
11:35 1027 30.33 856 25.28 11.9 53.5 33 -3.9 25
11:40 1027 30.33 856 25.28 12.1 53.7 33 -3.9 25
11:45 1027 30.33 856 25.28 12.1 53.8 32 -4.1 24.7
11:50 1027 30.33 856 25.28 12.3 54.1 31 -4.2 24.4
11:55 1027 30.33 856 25.28 11.8 53.3 31 -4.6 23.7
12:00 1027 30.33 856 25.28 12.7 54.9 29 -4.7 23.6
12:05 1027 30.33 856 25.28 13.2 55.7 29 -4.2 24.4
12:10 1027 30.33 856 25.28 13.4 56.1 30 -3.7 25.3
12:15 1027 30.33 856 25.28 13.1 55.5 29 -4.5 23.9
12:20 1027 30.33 856 25.28 13.3 55.9 28 -4.7 23.5
12:25 1026 30.3 856 25.28 13.6 56.4 29 -4.2 24.4
12:30 1026 30.3 855 25.25 13.6 56.4 28 -4.3 24.2
12:35 1026 30.3 855 25.25 13.2 55.7 29 -4.2 24.4
12:40 1026 30.3 855 25.25 13.7 56.7 27 -4.7 23.6
12:45 1026 30.3 855 25.25 14 57.3 27 -4.5 23.9
12:50 1026 30.3 855 25.25 14.5 58 27 -4.3 24.3
12:55 1026 30.3 855 25.25 14.6 58.4 27 -4.3 24.3
13:00 1026 30.3 855 25.25 14.8 58.6 27 -4 24.8
13:05 1026 30.3 855 25.25 14.4 57.9 26 -4.6 23.8
13:10 1026 30.3 855 25.25 14.4 57.9 26 -4.7 23.5
13:15 1026 30.3 855 25.25 15.1 59.1 24 -5.4 22.2
13:20 1026 30.3 855 25.25 15.3 59.6 24 -4.8 23.3
13:25 1025 30.27 855 25.25 15.1 59.1 23 -5.9 21.4
13:30 1025 30.27 855 25.25 15.1 59.1 24 -5.3 22.4
13:35 1025 30.27 855 25.25 15 59 22 -6.4 20.5
13:40 1025 30.27 855 25.25 15.4 59.8 23 -5.4 22.4
13:45 1026 30.3 855 25.25 15.3 59.6 23 -5.4 22.3
13:50 1026 30.3 855 25.25 15.3 59.5 23 -5.8 21.6
13:55 1025 30.27 855 25.25 15.5 59.9 23 -5.3 22.4
14:00 1025 30.27 855 25.25 15.3 59.6 23 -5.3 22.4
14:05 1025 30.27 855 25.25 15.1 59.1 24 -5.1 22.8
14:10 1025 30.27 855 25.25 15.4 59.8 23 -5.4 22.3
14:15 1025 30.27 854 25.22 15.5 59.9 24 -5 23
14:20 1025 30.27 854 25.22 15.3 59.6 25 -4.6 23.7
14:25 1025 30.27 854 25.22 14.4 57.9 26 -5 23.1
14:30 1025 30.27 854 25.22 14.9 58.9 24 -5.2 22.6
14:35 1025 30.27 854 25.22 15.4 59.6 24 -5.2 22.6
14:40 1025 30.27 854 25.22 15.9 60.6 23 -4.8 23.3
14:45 1025 30.27 854 25.22 15.5 59.8 25 -4.4 24.1
14:50 1025 30.27 854 25.22 15.2 59.3 25 -4.6 23.7
14:55 1025 30.27 854 25.22 15.3 59.6 25 -4.7 23.6
15:00 1025 30.27 854 25.22 15.1 59.2 26 -4.4 24.1
15:05 1025 30.27 854 25.22 15.1 59.1 26 -4.4 24.1
15:10 1025 30.27 854 25.22 14.7 58.5 26 -4.6 23.7
15:15 1025 30.27 854 25.22 15.1 59.2 25 -4.6 23.7
15:20 1025 30.27 854 25.22 15.3 59.6 25 -4.3 24.2
15:25 1025 30.27 854 25.22 15.5 59.9 25 -4.6 23.7
15:30 1025 30.27 854 25.22 15.5 59.8 25 -4.1 24.5
15:35 1025 30.27 854 25.22 14.8 58.6 25 -4.8 23.4
15:40 1025 30.27 854 25.22 15.2 59.3 25 -4.6 23.8
15:45 1025 30.27 854 25.22 15.3 59.5 25 -4.7 23.6
15:50 1025 30.27 854 25.22 15.3 59.6 24 -4.9 23.2
15:55 1025 30.27 854 25.22 15.3 59.5 25 -4.7 23.5
16:00 1025 30.27 854 25.22 15.4 59.8 25 -4.5 23.8
16:05 1025 30.27 854 25.22 15.3 59.6 25 -4.7 23.6
16:10 1025 30.27 854 25.22 15.5 59.9 25 -4.5 23.9
16:15 1025 30.27 854 25.22 15.4 59.8 25 -4.2 24.5
16:20 1025 30.27 854 25.22 15 59 25 -4.6 23.8
16:25 1025 30.27 854 25.22 15.2 59.4 25 -4.6 23.7
16:30 1025 30.27 854 25.22 15.4 59.7 26 -4.2 24.5
16:35 1025 30.27 854 25.22 14.9 58.9 26 -4.2 24.4
16:40 1025 30.27 854 25.22 14.8 58.6 27 -4.2 24.4
16:45 1025 30.27 854 25.22 14.4 58 27 -4.1 24.7
16:50 1025 30.27 854 25.22 14.3 57.8 27 -4.1 24.6
16:55 1025 30.27 854 25.22 14 57.2 29 -3.7 25.3
17:00 1025 30.27 854 25.22 13.6 56.6 30 -3.7 25.3
17:05 1025 30.27 854 25.22 13.4 56 29 -4.1 24.5
17:10 1025 30.27 854 25.22 12.8 55.1 32 -3.6 25.5
17:15 1025 30.27 854 25.22 12.1 53.7 34 -3.5 25.7
17:20 1025 30.27 854 25.22 11.4 52.6 33 -4.1 24.6
17:25 1025 30.27 854 25.22 10.8 51.5 36 -3.7 25.4
17:30 1025 30.27 854 25.22 10.3 50.5 36 -4.1 24.6
17:35 1025 30.27 854 25.22 10.4 50.6 36 -4.1 24.6
17:40 1025 30.27 854 25.22 10.6 51 36 -3.8 25.1
17:45 1025 30.27 854 25.22 10.5 50.9 36 -3.8 25.2
17:50 1025 30.27 854 25.22 10 50 39 -3.4 26
17:55 1025 30.27 854 25.22 9.7 49.5 39 -3.5 25.7
18:00 1025 30.27 854 25.22 9.9 49.9 37 -4.2 24.4
18:05 1025 30.27 854 25.22 9.7 49.5 37 -4.2 24.5
18:10 1025 30.27 854 25.22 9.6 49.3 36 -4.8 23.3
18:15 1025 30.27 854 25.22 9.5 49 36 -4.7 23.5
18:20 1025 30.27 854 25.22 9.1 48.4 38 -4.5 23.9
18:25 1025 30.27 854 25.22 8.5 47.4 40 -4.4 24
18:30 1025 30.27 854 25.22 8.2 46.7 39 -4.9 23.2
18:35 1025 30.27 854 25.22 7.9 46.2 38 -5.7 21.8
18:40 1025 30.27 854 25.22 8.3 46.9 37 -5.7 21.8
18:45 1025 30.27 854 25.22 8.4 47.2 38 -5.1 22.9
18:50 1025 30.27 854 25.22 8.3 47 37 -5.5 22.2
18:55 1025 30.27 854 25.22 8.2 46.8 38 -5.3 22.5
19:00 1025 30.27 854 25.22 8.5 47.2 36 -5.8 21.5
19:05 1025 30.27 854 25.22 8.7 47.7 37 -5.3 22.5
19:10 1025 30.27 854 25.22 7.7 45.9 38 -5.6 22
19:15 1025 30.27 854 25.22 7.4 45.2 37 -6.4 20.5
19:20 1025 30.27 854 25.22 7.3 45.2 38 -6 21.2
19:25 1025 30.27 854 25.22 7 44.6 39 -6.2 20.9
19:30 1025 30.27 854 25.22 7.5 45.5 37 -6.3 20.7
19:35 1025 30.27 854 25.22 7.9 46.3 34 -6.9 19.5
19:40 1025 30.27 854 25.22 8.4 47.2 33 -6.8 19.8
19:45 1025 30.27 854 25.22 8.7 47.6 32 -7.2 19.1
19:50 1025 30.27 854 25.22 8.5 47.2 34 -6.4 20.5
19:55 1025 30.27 854 25.22 7.6 45.7 34 -7.1 19.2
20:00 1025 30.27 854 25.22 7.5 45.4 35 -7 19.5
20:05 1025 30.27 854 25.22 7.3 45.1 37 -6.6 20.1
20:10 1025 30.27 854 25.22 7.1 44.7 36 -7 19.3
20:15 1025 30.27 854 25.22 6.9 44.4 37 -6.9 19.7
20:20 1025 30.27 854 25.22 6.7 44.1 37 -6.9 19.6
20:25 1025 30.27 854 25.22 6.7 44.1 37 -6.9 19.6
20:30 1025 30.27 854 25.22 6.7 44 38 -6.7 19.9
20:35 1025 30.27 854 25.22 6.3 43.4 39 -6.5 20.3
20:40 1025 30.27 854 25.22 6.1 43 38 -7.2 19.1
20:45 1025 30.27 854 25.22 6.3 43.3 38 -7.2 19.1
20:50 1025 30.27 854 25.22 6.5 43.7 36 -7.4 18.7
20:55 1025 30.27 854 25.22 6.9 44.4 34 -8 17.7
21:00 1025 30.27 854 25.22 7.3 45.1 33 -8 17.6
21:05 1025 30.27 854 25.22 7.6 45.6 32 -7.9 17.7
21:10 1025 30.27 854 25.22 7.6 45.6 33 -7.8 17.9
21:15 1025 30.27 855 25.25 7.6 45.7 32 -7.9 17.8
21:20 1025 30.27 855 25.25 7.6 45.7 32 -7.9 17.8
21:25 1025 30.27 855 25.25 7.7 45.8 32 -8 17.7
21:30 1025 30.27 855 25.25 7.6 45.7 32 -7.9 17.8
21:35 1025 30.27 855 25.25 7.6 45.7 33 -7.7 18.1
21:40 1025 30.27 855 25.25 7.7 45.8 31 -8.3 17.1
21:45 1025 30.27 855 25.25 8 46.3 32 -7.6 18.3
21:50 1025 30.27 855 25.25 7.9 46.2 33 -7.6 18.4
21:55 1025 30.27 855 25.25 7.6 45.8 34 -7.2 19
22:00 1025 30.27 855 25.25 6.7 44 38 -6.8 19.8
22:05 1025 30.27 855 25.25 5.8 42.5 39 -6.9 19.5
22:10 1025 30.27 855 25.25 5.3 41.5 41 -6.9 19.5
22:15 1025 30.27 855 25.25 5.5 41.8 39 -7.6 18.4
22:20 1026 30.3 855 25.25 6.3 43.3 36 -7.8 17.9
22:25 1025 30.27 855 25.25 6.4 43.5 36 -7.5 18.6
22:30 1026 30.3 855 25.25 6.1 43 37 -7.4 18.7
22:35 1026 30.3 855 25.25 6.4 43.4 36 -7.6 18.4
22:40 1026 30.3 855 25.25 6.3 43.4 36 -7.6 18.4
22:45 1026 30.3 855 25.25 6.2 43.2 35 -8 17.6
22:50 1026 30.3 855 25.25 6.4 43.5 36 -7.5 18.5
22:55 1026 30.3 855 25.25 6.3 43.4 36 -7.7 18.1
23:00 1026 30.3 855 25.25 6.1 43 38 -7.1 19.1
23:05 1026 30.3 855 25.25 5.7 42.2 39 -7.3 18.9
23:10 1026 30.3 855 25.25 5.5 41.9 39 -7.3 18.9
23:15 1026 30.3 855 25.25 5.3 41.6 40 -7.1 19.2
23:20 1025 30.27 855 25.25 5.2 41.3 40 -7.4 18.7
23:25 1025 30.27 855 25.25 5.2 41.4 40 -7.2 19.1
23:30 1025 30.27 855 25.25 5.1 41.3 40 -7.2 19
23:35 1025 30.27 855 25.25 5.1 41.1 40 -7.3 18.9
23:40 1025 30.27 855 25.25 5.1 41.2 40 -7.5 18.4
23:45 1025 30.27 855 25.25 5 41 41 -7.3 18.9
23:50 1025 30.27 854 25.22 4.7 40.5 42 -7.1 19.1
23:55 1025 30.27 855 25.25 4.5 40.1 43 -7.1 19.3
24:00 1025 30.27 854 25.22 4.3 39.7 44 -7.1 19.3